Terminal Aerodrome Forecast
Issued by NWS

Home | Current Version | Previous Version | Text Only | Print | Product List | Glossary On
Versions: 1 2 3 4 5 6 7 8 9 10 11 12
000
FTAK31 PAJN 290500
TAFAJN
TAF
PAJN 290530Z 2906/3006 24005KT 6SM -RA BR SCT005 BKN040 OVC080
      TEMPO 2906/2908 4SM -RA BR BKN004 OVC040
     FM290900 VRB03KT P6SM -RA SCT020 OVC040
     FM291800 12005KT P6SM -RA SCT025 OVC050
     FM292100 12008KT P6SM -RA OVC050
     FM300300 10006KT P6SM -RA SCT020 OVC040=

USA.gov is the U.S. government's official web portal to all federal, state and local government web resources and services.